Time;durP1;ratioP1;P1;durP2;ratioP2;P2;SDS_P1;SDS_P2;PMS_P1;PMS_P2;Temp;Humidity;BMP_temperature;BMP_pressure;BME280_temperature;BME280_humidity;BME280_pressure;Samples;Min_cycle;Max_cycle;Signal;HPM_P1;HPM_P2
2024/02/22 00:01:17;;;;;;;21.83;12.77;;;;;;;;;;5110177;28;20075;-63
2024/02/22 00:03:42;;;;;;;20.77;12.43;;;;;;;;;;5112332;28;20260;-62
2024/02/22 00:06:08;;;;;;;20.48;11.75;;;;;;;;;;5112707;28;20295;-64
2024/02/22 00:08:33;;;;;;;19.57;12.00;;;;;;;;;;5111552;28;20046;-63
2024/02/22 00:10:58;;;;;;;20.40;11.37;;;;;;;;;;5112146;28;20040;-62
2024/02/22 00:13:24;;;;;;;22.23;12.47;;;;;;;;;;5115098;28;20031;-62
2024/02/22 00:15:50;;;;;;;21.00;12.18;;;;;;;;;;5114881;28;20027;-63
2024/02/22 00:18:16;;;;;;;20.08;11.93;;;;;;;;;;5112372;28;20107;-63
2024/02/22 00:20:41;;;;;;;19.48;11.65;;;;;;;;;;5112189;28;20042;-62
2024/02/22 00:23:06;;;;;;;18.13;11.00;;;;;;;;;;5112673;28;20038;-62
2024/02/22 00:25:32;;;;;;;19.67;10.43;;;;;;;;;;5111550;28;20463;-62
2024/02/22 00:27:58;;;;;;;18.70;10.93;;;;;;;;;;5108301;28;20020;-63
2024/02/22 00:30:25;;;;;;;23.90;11.13;;;;;;;;;;5099838;28;20028;-63
2024/02/22 00:32:50;;;;;;;21.13;11.47;;;;;;;;;;5119773;28;20043;-62
2024/02/22 00:35:16;;;;;;;19.23;11.15;;;;;;;;;;5116241;28;20265;-63
2024/02/22 00:37:42;;;;;;;18.13;10.87;;;;;;;;;;5114486;28;20066;-63
2024/02/22 00:40:13;;;;;;;17.97;10.47;;;;;;;;;;5105674;28;20349;-63
2024/02/22 00:42:40;;;;;;;19.10;11.93;;;;;;;;;;5108092;28;20287;-62
2024/02/22 00:45:05;;;;;;;18.40;10.73;;;;;;;;;;5119103;28;20281;-62
2024/02/22 00:47:32;;;;;;;17.93;10.97;;;;;;;;;;5113181;28;20028;-63
2024/02/22 00:49:57;;;;;;;17.93;10.83;;;;;;;;;;5120572;28;20272;-62
2024/02/22 00:52:23;;;;;;;21.65;12.43;;;;;;;;;;5121248;28;20059;-63
2024/02/22 00:54:48;;;;;;;19.03;10.53;;;;;;;;;;5118503;28;20054;-63
2024/02/22 00:57:13;;;;;;;20.10;11.47;;;;;;;;;;5114420;28;20139;-62
2024/02/22 00:59:38;;;;;;;21.17;12.63;;;;;;;;;;5111957;28;20032;-64
2024/02/22 01:02:04;;;;;;;18.63;10.90;;;;;;;;;;5111254;28;20020;-62
2024/02/22 01:04:29;;;;;;;23.37;11.77;;;;;;;;;;5111694;28;20976;-63
2024/02/22 01:06:56;;;;;;;18.13;11.27;;;;;;;;;;5111862;28;20059;-62
2024/02/22 01:09:21;;;;;;;17.87;10.53;;;;;;;;;;5110578;28;20092;-62
2024/02/22 01:11:47;;;;;;;19.63;12.07;;;;;;;;;;5110566;28;20272;-63
2024/02/22 01:14:13;;;;;;;18.33;10.85;;;;;;;;;;5115822;28;20028;-63
2024/02/22 01:16:38;;;;;;;17.73;10.75;;;;;;;;;;5114440;28;20054;-63
2024/02/22 01:19:04;;;;;;;23.90;11.17;;;;;;;;;;5115211;28;20028;-63
2024/02/22 01:21:30;;;;;;;17.70;10.02;;;;;;;;;;5117220;28;20297;-63
2024/02/22 01:23:56;;;;;;;19.30;10.25;;;;;;;;;;5116487;28;20028;-63
2024/02/22 01:26:21;;;;;;;21.30;11.50;;;;;;;;;;5117548;28;20056;-63
2024/02/22 01:28:47;;;;;;;20.53;11.40;;;;;;;;;;5115153;28;20267;-63
2024/02/22 01:31:13;;;;;;;21.67;12.68;;;;;;;;;;5113106;28;20020;-63
2024/02/22 01:33:38;;;;;;;20.23;10.20;;;;;;;;;;5116803;28;20060;-62
2024/02/22 01:36:03;;;;;;;22.27;12.23;;;;;;;;;;5122238;28;20032;-62
2024/02/22 01:38:29;;;;;;;24.90;13.13;;;;;;;;;;5116673;28;20032;-62
2024/02/22 01:40:54;;;;;;;22.77;12.73;;;;;;;;;;5107437;28;20058;-62
2024/02/22 01:43:20;;;;;;;24.37;13.30;;;;;;;;;;5119113;28;20047;-63
2024/02/22 01:45:45;;;;;;;24.35;13.52;;;;;;;;;;5119333;28;20021;-63
2024/02/22 01:48:11;;;;;;;24.80;13.57;;;;;;;;;;5117542;28;20040;-63
2024/02/22 01:50:39;;;;;;;28.50;13.70;;;;;;;;;;5117675;28;20486;-63
2024/02/22 01:53:05;;;;;;;29.30;15.13;;;;;;;;;;5116624;28;20451;-63
2024/02/22 01:55:30;;;;;;;29.70;14.60;;;;;;;;;;5126989;28;20252;-63
2024/02/22 01:57:57;;;;;;;30.48;14.70;;;;;;;;;;5122070;28;20028;-62
2024/02/22 02:00:23;;;;;;;32.73;16.33;;;;;;;;;;5117748;28;20065;-63
2024/02/22 02:02:51;;;;;;;33.63;14.52;;;;;;;;;;5117519;28;20032;-63
2024/02/22 02:05:17;;;;;;;34.30;16.30;;;;;;;;;;5120672;28;20050;-62
2024/02/22 02:07:43;;;;;;;33.00;16.17;;;;;;;;;;5106077;28;20261;-63
2024/02/22 02:10:09;;;;;;;37.58;17.15;;;;;;;;;;5108545;28;20261;-63
2024/02/22 02:12:35;;;;;;;35.83;16.77;;;;;;;;;;5113586;28;20046;-64
2024/02/22 02:15:00;;;;;;;36.53;16.97;;;;;;;;;;5119457;28;20285;-62
2024/02/22 02:17:25;;;;;;;46.03;17.23;;;;;;;;;;5113836;28;20502;-63
2024/02/22 02:19:54;;;;;;;44.30;17.93;;;;;;;;;;5114721;28;20031;-63
2024/02/22 02:22:43;;;;;;;37.50;16.40;;;;;;;;;;5114246;28;20028;-63
2024/02/22 02:25:09;;;;;;;44.33;17.77;;;;;;;;;;5084855;28;20283;-62
2024/02/22 02:27:36;;;;;;;51.40;19.95;;;;;;;;;;5113594;28;20257;-63
2024/02/22 02:30:03;;;;;;;50.40;19.90;;;;;;;;;;5115114;28;20054;-63
2024/02/22 02:32:28;;;;;;;47.67;19.20;;;;;;;;;;5113480;28;20274;-63
2024/02/22 02:34:53;;;;;;;44.90;20.23;;;;;;;;;;5114444;28;20043;-62
2024/02/22 02:37:19;;;;;;;46.92;19.15;;;;;;;;;;5113654;28;20032;-62
2024/02/22 02:39:45;;;;;;;48.22;18.63;;;;;;;;;;5119066;28;20066;-62
2024/02/22 02:42:10;;;;;;;50.53;19.30;;;;;;;;;;5115699;28;20122;-63
2024/02/22 02:44:36;;;;;;;58.00;18.83;;;;;;;;;;5116062;28;20073;-62
2024/02/22 02:47:02;;;;;;;42.53;17.63;;;;;;;;;;5112077;28;20059;-62
2024/02/22 02:49:27;;;;;;;47.88;19.35;;;;;;;;;;5116663;28;20024;-62
2024/02/22 02:51:53;;;;;;;56.07;22.40;;;;;;;;;;5108827;28;20039;-62
2024/02/22 02:54:18;;;;;;;50.13;19.92;;;;;;;;;;5116702;28;20028;-62
2024/02/22 02:56:45;;;;;;;59.03;21.05;;;;;;;;;;5127876;28;20059;-62
2024/02/22 02:59:12;;;;;;;63.47;20.07;;;;;;;;;;5118599;28;20052;-61
2024/02/22 03:01:37;;;;;;;;;;;;;;;;;;5107163;28;20280;-62
2024/02/22 03:04:03;;;;;;;70.63;20.53;;;;;;;;;;5116377;28;19912;-62
2024/02/22 03:06:28;;;;;;;64.67;21.83;;;;;;;;;;5116900;28;20046;-61
2024/02/22 03:08:53;;;;;;;75.60;21.30;;;;;;;;;;5125294;28;20264;-61
2024/02/22 03:11:19;;;;;;;51.40;18.50;;;;;;;;;;5106008;28;20463;-62
2024/02/22 03:13:44;;;;;;;57.97;20.97;;;;;;;;;;5110571;28;20047;-62
2024/02/22 03:16:11;;;;;;;71.88;20.38;;;;;;;;;;5116761;28;20039;-61
2024/02/22 03:18:36;;;;;;;63.73;22.13;;;;;;;;;;5110280;28;20032;-61
2024/02/22 03:21:02;;;;;;;68.93;21.50;;;;;;;;;;5115083;28;20278;-63
2024/02/22 03:23:27;;;;;;;60.13;20.47;;;;;;;;;;5116319;28;20276;-62
2024/02/22 03:25:53;;;;;;;66.30;20.27;;;;;;;;;;5115766;28;20155;-61
2024/02/22 03:28:21;;;;;;;73.20;22.25;;;;;;;;;;5120293;28;20031;-62
2024/02/22 03:30:46;;;;;;;71.10;21.40;;;;;;;;;;5113541;28;20052;-61
2024/02/22 03:33:13;;;;;;;66.07;22.45;;;;;;;;;;5112190;28;20268;-61
2024/02/22 03:35:39;;;;;;;62.47;21.13;;;;;;;;;;5110791;28;20062;-62
2024/02/22 03:38:04;;;;;;;68.03;21.23;;;;;;;;;;5112634;28;20284;-61
2024/02/22 03:40:30;;;;;;;67.00;19.65;;;;;;;;;;5114629;28;20043;-62
2024/02/22 03:42:57;;;;;;;71.78;19.80;;;;;;;;;;5114318;28;20028;-61
2024/02/22 03:45:22;;;;;;;;;;;;;;;;;;5114051;28;20038;-61
2024/02/22 03:47:47;;;;;;;74.93;18.43;;;;;;;;;;5112946;28;19908;-61
2024/02/22 03:50:13;;;;;;;66.35;18.20;;;;;;;;;;5111846;28;20091;-62
2024/02/22 03:52:38;;;;;;;71.70;19.60;;;;;;;;;;5113550;28;20051;-61
2024/02/22 03:55:04;;;;;;;81.07;18.97;;;;;;;;;;5113359;28;20061;-61
2024/02/22 03:57:29;;;;;;;54.58;17.25;;;;;;;;;;5115813;28;20083;-61
2024/02/22 03:59:55;;;;;;;74.38;16.98;;;;;;;;;;5112648;28;20024;-62
2024/02/22 04:02:21;;;;;;;58.83;18.33;;;;;;;;;;5108854;28;20048;-61
2024/02/22 04:04:49;;;;;;;69.93;16.48;;;;;;;;;;5113064;28;20027;-62
2024/02/22 04:07:15;;;;;;;57.40;15.93;;;;;;;;;;5108530;28;20046;-61
2024/02/22 04:09:41;;;;;;;61.23;14.03;;;;;;;;;;5114889;28;20332;-61
2024/02/22 04:12:06;;;;;;;51.70;12.83;;;;;;;;;;5115175;28;20267;-62
2024/02/22 04:14:32;;;;;;;66.50;14.67;;;;;;;;;;5115323;28;20320;-62
2024/02/22 04:16:57;;;;;;;61.90;14.97;;;;;;;;;;5118003;28;20384;-62
2024/02/22 04:19:23;;;;;;;56.78;12.85;;;;;;;;;;5114857;28;20036;-62
2024/02/22 04:21:48;;;;;;;61.07;13.73;;;;;;;;;;5117762;28;20101;-61
2024/02/22 04:24:14;;;;;;;47.47;11.53;;;;;;;;;;5109065;28;20261;-62
2024/02/22 04:26:47;;;;;;;52.87;13.33;;;;;;;;;;5118777;28;20271;-62
2024/02/22 04:29:12;;;;;;;42.90;10.67;;;;;;;;;;5114527;28;20320;-61
2024/02/22 04:31:37;;;;;;;50.30;11.68;;;;;;;;;;5116481;28;20276;-60
2024/02/22 04:34:03;;;;;;;52.23;11.40;;;;;;;;;;5099025;28;20043;-61
2024/02/22 04:36:28;;;;;;;60.47;11.40;;;;;;;;;;5107958;28;20296;-61
2024/02/22 04:38:54;;;;;;;42.35;9.30;;;;;;;;;;5120290;28;20272;-61
2024/02/22 04:41:21;;;;;;;52.28;12.02;;;;;;;;;;5120135;28;20058;-60
2024/02/22 04:43:46;;;;;;;47.38;10.75;;;;;;;;;;5114604;28;20024;-60
2024/02/22 04:46:11;;;;;;;40.23;8.60;;;;;;;;;;5112451;28;20096;-61
2024/02/22 04:48:37;;;;;;;43.90;10.43;;;;;;;;;;5111798;28;20027;-61
2024/02/22 04:51:03;;;;;;;47.23;11.73;;;;;;;;;;5114270;28;20059;-60
2024/02/22 04:53:28;;;;;;;;;;;;;;;;;;5110962;28;20042;-61
2024/02/22 04:55:54;;;;;;;47.97;9.50;;;;;;;;;;5111937;28;19912;-61
2024/02/22 04:58:20;;;;;;;54.43;10.33;;;;;;;;;;5111587;28;20039;-61
2024/02/22 05:00:46;;;;;;;37.87;10.63;;;;;;;;;;5114475;28;20294;-60
2024/02/22 05:03:12;;;;;;;50.20;11.50;;;;;;;;;;5110967;28;20266;-61
2024/02/22 05:05:38;;;;;;;42.90;8.40;;;;;;;;;;5111581;28;20028;-61
2024/02/22 05:08:04;;;;;;;50.75;9.20;;;;;;;;;;5113133;28;20090;-59
2024/02/22 05:10:31;;;;;;;47.67;8.10;;;;;;;;;;5112704;28;20473;-60
2024/02/22 05:12:56;;;;;;;51.57;8.73;;;;;;;;;;5094561;28;20052;-61
2024/02/22 05:15:22;;;;;;;48.97;9.80;;;;;;;;;;5093504;28;20272;-60
2024/02/22 05:17:48;;;;;;;53.20;9.43;;;;;;;;;;5123777;28;20063;-60
2024/02/22 05:20:13;;;;;;;45.75;9.70;;;;;;;;;;5119615;28;20302;-61
2024/02/22 05:22:39;;;;;;;46.15;7.88;;;;;;;;;;5105696;28;20052;-60
2024/02/22 05:25:05;;;;;;;42.57;8.00;;;;;;;;;;5114134;28;20021;-61
2024/02/22 05:27:30;;;;;;;42.35;10.15;;;;;;;;;;5119654;28;20024;-61
2024/02/22 05:29:56;;;;;;;43.13;8.47;;;;;;;;;;5115553;28;20039;-61
2024/02/22 05:32:21;;;;;;;46.80;8.53;;;;;;;;;;5105156;28;20276;-60
2024/02/22 05:34:47;;;;;;;38.08;7.75;;;;;;;;;;5106641;28;20257;-61
2024/02/22 05:37:12;;;;;;;50.57;9.13;;;;;;;;;;5117017;28;20061;-59
2024/02/22 05:39:39;;;;;;;53.90;8.77;;;;;;;;;;5114679;28;20051;-60
2024/02/22 05:42:04;;;;;;;41.30;9.07;;;;;;;;;;5103761;28;20040;-60
2024/02/22 05:44:31;;;;;;;45.95;8.43;;;;;;;;;;5102032;28;20094;-60
2024/02/22 05:46:57;;;;;;;37.23;9.00;;;;;;;;;;5118135;28;20028;-60
2024/02/22 05:49:22;;;;;;;45.00;8.30;;;;;;;;;;5117183;28;20295;-61
2024/02/22 05:51:48;;;;;;;33.83;8.73;;;;;;;;;;5109935;28;20024;-59
2024/02/22 05:54:14;;;;;;;32.50;8.23;;;;;;;;;;5107558;28;20056;-61
2024/02/22 05:56:39;;;;;;;46.67;8.98;;;;;;;;;;5106233;28;20024;-60
2024/02/22 05:59:06;;;;;;;43.70;10.07;;;;;;;;;;5111102;28;20091;-60
2024/02/22 06:01:32;;;;;;;42.17;8.60;;;;;;;;;;5113419;28;20054;-62
2024/02/22 06:03:58;;;;;;;40.43;9.43;;;;;;;;;;5116387;28;20260;-60
2024/02/22 06:06:23;;;;;;;45.90;9.00;;;;;;;;;;5115240;28;20256;-60
2024/02/22 06:08:48;;;;;;;44.13;10.63;;;;;;;;;;5116955;28;20048;-60
2024/02/22 06:11:15;;;;;;;50.83;12.13;;;;;;;;;;5113936;28;20071;-61
2024/02/22 06:13:40;;;;;;;50.72;13.90;;;;;;;;;;5113768;28;20038;-60
2024/02/22 06:16:06;;;;;;;40.05;11.93;;;;;;;;;;5114600;28;20052;-60
2024/02/22 06:18:32;;;;;;;39.23;13.63;;;;;;;;;;5113805;28;20040;-59
2024/02/22 06:20:57;;;;;;;55.50;11.52;;;;;;;;;;5112947;28;20196;-60
2024/02/22 06:23:22;;;;;;;46.10;11.10;;;;;;;;;;5113853;28;20036;-59
2024/02/22 06:25:49;;;;;;;43.43;12.13;;;;;;;;;;5115672;28;20059;-59
2024/02/22 06:28:14;;;;;;;51.77;13.57;;;;;;;;;;5126063;28;20031;-59
2024/02/22 06:30:40;;;;;;;65.90;17.17;;;;;;;;;;5116960;28;20328;-60
2024/02/22 06:33:05;;;;;;;58.27;17.27;;;;;;;;;;5115842;28;20280;-60
2024/02/22 06:35:30;;;;;;;52.13;16.40;;;;;;;;;;5104014;28;20036;-60
2024/02/22 06:37:56;;;;;;;66.10;16.90;;;;;;;;;;5117700;28;20024;-61
2024/02/22 06:40:21;;;;;;;55.73;16.77;;;;;;;;;;5117083;28;20149;-60
2024/02/22 06:42:47;;;;;;;66.50;17.17;;;;;;;;;;5119009;28;20271;-60
2024/02/22 06:45:12;;;;;;;63.93;17.03;;;;;;;;;;5113818;28;20284;-60
2024/02/22 06:47:38;;;;;;;67.40;19.23;;;;;;;;;;5121504;28;20028;-60
2024/02/22 06:50:05;;;;;;;65.47;17.90;;;;;;;;;;5117120;28;20074;-59
2024/02/22 06:52:31;;;;;;;64.20;18.43;;;;;;;;;;5107611;28;20052;-60
2024/02/22 06:54:56;;;;;;;63.07;18.70;;;;;;;;;;5114822;28;20267;-60
2024/02/22 06:57:22;;;;;;;52.30;18.47;;;;;;;;;;5108653;28;20262;-60
2024/02/22 06:59:47;;;;;;;57.43;16.80;;;;;;;;;;5113907;28;20292;-58
2024/02/22 07:02:18;;;;;;;66.70;17.92;;;;;;;;;;5107805;28;20055;-59
2024/02/22 07:04:43;;;;;;;50.90;16.10;;;;;;;;;;5116251;28;20127;-60
2024/02/22 07:07:09;;;;;;;47.78;15.10;;;;;;;;;;5119001;28;20253;-59
2024/02/22 07:09:35;;;;;;;53.47;15.10;;;;;;;;;;5116230;28;20092;-60
2024/02/22 07:12:01;;;;;;;51.83;14.45;;;;;;;;;;5119092;28;20047;-61
2024/02/22 07:14:26;;;;;;;36.65;13.57;;;;;;;;;;5110335;28;20115;-61
2024/02/22 07:16:52;;;;;;;43.75;12.75;;;;;;;;;;5109119;28;20062;-60
2024/02/22 07:19:18;;;;;;;49.73;11.90;;;;;;;;;;5112214;28;20027;-60
2024/02/22 07:21:44;;;;;;;37.53;11.13;;;;;;;;;;5112792;28;20031;-61
2024/02/22 07:24:11;;;;;;;32.50;11.13;;;;;;;;;;5110811;28;20028;-60
2024/02/22 07:26:38;;;;;;;35.77;11.23;;;;;;;;;;5112026;28;20051;-61
2024/02/22 07:29:04;;;;;;;39.80;12.30;;;;;;;;;;5114202;28;20256;-61
2024/02/22 07:31:30;;;;;;;38.77;11.37;;;;;;;;;;5115346;28;20339;-60
2024/02/22 07:33:55;;;;;;;36.80;11.35;;;;;;;;;;5113558;28;20047;-58
2024/02/22 07:36:21;;;;;;;29.00;10.23;;;;;;;;;;5113336;28;20044;-60
2024/02/22 07:38:46;;;;;;;36.13;10.97;;;;;;;;;;5111299;28;20269;-60
2024/02/22 07:41:15;;;;;;;41.08;10.32;;;;;;;;;;5115271;28;20036;-61
2024/02/22 07:43:42;;;;;;;35.87;10.47;;;;;;;;;;5114307;28;20020;-60
2024/02/22 07:46:09;;;;;;;28.77;10.70;;;;;;;;;;5110733;28;20268;-60
2024/02/22 07:48:34;;;;;;;35.45;9.98;;;;;;;;;;5115009;28;20248;-64
2024/02/22 07:50:59;;;;;;;26.67;9.73;;;;;;;;;;5117260;28;20043;-60
2024/02/22 07:53:25;;;;;;;21.47;10.67;;;;;;;;;;5115807;28;20036;-60
2024/02/22 07:55:51;;;;;;;27.20;10.10;;;;;;;;;;5107789;28;20029;-60
2024/02/22 07:58:18;;;;;;;25.98;10.18;;;;;;;;;;5120524;28;20103;-60
2024/02/22 08:00:43;;;;;;;28.02;10.00;;;;;;;;;;5104764;28;20029;-62
2024/02/22 08:03:09;;;;;;;29.42;11.50;;;;;;;;;;5114554;28;20110;-60
2024/02/22 08:05:35;;;;;;;26.15;10.57;;;;;;;;;;5101682;28;20110;-60
2024/02/22 08:08:00;;;;;;;32.57;11.73;;;;;;;;;;5128602;28;20040;-60
2024/02/22 08:10:26;;;;;;;29.17;9.93;;;;;;;;;;5117279;28;20044;-58
2024/02/22 08:12:52;;;;;;;26.67;11.68;;;;;;;;;;5114787;28;20051;-61
2024/02/22 08:15:17;;;;;;;29.47;11.57;;;;;;;;;;5112767;28;20035;-58
2024/02/22 08:17:42;;;;;;;29.03;10.83;;;;;;;;;;5111863;28;20261;-60
2024/02/22 08:20:08;;;;;;;27.97;10.83;;;;;;;;;;5114377;28;20347;-60
2024/02/22 08:22:35;;;;;;;35.40;11.93;;;;;;;;;;5122331;28;20267;-60
2024/02/22 08:25:00;;;;;;;;;;;;;;;;;;5104528;28;20039;-61
2024/02/22 08:27:25;;;;;;;25.17;9.83;;;;;;;;;;5122054;28;19939;-60
2024/02/22 08:29:51;;;;;;;20.75;9.27;;;;;;;;;;5114668;28;20047;-60
2024/02/22 08:32:16;;;;;;;23.17;9.57;;;;;;;;;;5119682;28;20051;-60
2024/02/22 08:34:42;;;;;;;22.23;8.95;;;;;;;;;;5109166;28;20039;-60
2024/02/22 08:37:08;;;;;;;16.73;8.40;;;;;;;;;;5108060;28;20032;-61
2024/02/22 08:39:33;;;;;;;23.83;9.03;;;;;;;;;;5118222;28;20051;-60
2024/02/22 08:41:59;;;;;;;19.37;9.07;;;;;;;;;;5113202;28;20054;-60
2024/02/22 08:44:26;;;;;;;16.92;8.18;;;;;;;;;;5105335;28;20028;-61
2024/02/22 08:46:51;;;;;;;23.53;9.00;;;;;;;;;;5117717;28;20024;-60
2024/02/22 08:49:18;;;;;;;20.07;8.97;;;;;;;;;;5114429;28;20264;-60
2024/02/22 08:51:44;;;;;;;19.97;8.73;;;;;;;;;;5107899;28;20265;-60
2024/02/22 08:54:09;;;;;;;17.03;7.73;;;;;;;;;;5114055;28;20294;-61
2024/02/22 08:56:35;;;;;;;18.23;8.60;;;;;;;;;;5114552;28;20271;-59
2024/02/22 08:59:00;;;;;;;18.23;9.03;;;;;;;;;;5104080;28;20067;-60
2024/02/22 09:01:26;;;;;;;20.15;9.60;;;;;;;;;;5110487;28;20037;-58
2024/02/22 09:03:52;;;;;;;17.10;9.02;;;;;;;;;;5110257;28;20032;-60
2024/02/22 09:06:18;;;;;;;16.10;8.95;;;;;;;;;;5110939;28;20052;-60
2024/02/22 09:08:44;;;;;;;13.63;7.80;;;;;;;;;;5111774;28;20032;-60
2024/02/22 09:11:10;;;;;;;14.13;7.80;;;;;;;;;;5112360;28;20028;-58
2024/02/22 09:13:35;;;;;;;11.77;7.07;;;;;;;;;;5110383;28;20039;-60
2024/02/22 09:16:01;;;;;;;16.13;7.70;;;;;;;;;;5112087;28;20358;-60
2024/02/22 09:18:27;;;;;;;12.52;6.38;;;;;;;;;;5112464;28;20024;-60
2024/02/22 09:20:52;;;;;;;10.93;6.60;;;;;;;;;;5111984;28;20051;-58
2024/02/22 09:23:19;;;;;;;9.70;5.40;;;;;;;;;;5111660;28;20054;-60
2024/02/22 09:25:45;;;;;;;10.50;6.17;;;;;;;;;;5110984;28;20023;-60
2024/02/22 09:28:11;;;;;;;11.23;6.87;;;;;;;;;;5113444;28;20335;-61
2024/02/22 09:30:36;;;;;;;10.02;6.10;;;;;;;;;;5100813;28;20324;-61
2024/02/22 09:33:03;;;;;;;11.65;6.75;;;;;;;;;;5114019;28;20040;-59
2024/02/22 09:35:28;;;;;;;12.10;7.53;;;;;;;;;;5123317;28;20040;-60
2024/02/22 09:37:54;;;;;;;9.50;6.22;;;;;;;;;;5111094;28;20040;-59
2024/02/22 09:40:21;;;;;;;9.07;6.22;;;;;;;;;;5116878;28;20027;-60
2024/02/22 09:42:47;;;;;;;9.97;6.33;;;;;;;;;;5117726;28;20036;-60
2024/02/22 09:45:13;;;;;;;10.23;5.25;;;;;;;;;;5119006;28;20291;-58
2024/02/22 09:47:39;;;;;;;12.25;6.60;;;;;;;;;;5117917;28;20040;-58
2024/02/22 09:50:09;;;;;;;12.37;6.33;;;;;;;;;;5109069;28;20034;-57
2024/02/22 09:52:35;;;;;;;8.73;6.13;;;;;;;;;;5122049;28;20283;-60
2024/02/22 09:55:01;;;;;;;9.47;6.20;;;;;;;;;;5115158;28;20024;-61
2024/02/22 09:57:27;;;;;;;7.80;5.50;;;;;;;;;;5117662;28;20096;-61
2024/02/22 09:59:52;;;;;;;7.63;5.00;;;;;;;;;;5116826;28;20040;-61
2024/02/22 10:02:18;;;;;;;6.40;4.33;;;;;;;;;;5117226;28;20459;-60
2024/02/22 10:04:56;;;;;;;7.60;4.53;;;;;;;;;;5117064;28;20021;-60
2024/02/22 10:07:26;;;;;;;7.87;5.03;;;;;;;;;;5124125;28;20058;-60
2024/02/22 10:09:54;;;;;;;7.30;4.70;;;;;;;;;;5107520;28;20044;-60
2024/02/22 10:12:26;;;;;;;10.67;5.03;;;;;;;;;;5112319;28;20059;-60
2024/02/22 10:14:52;;;;;;;6.43;4.33;;;;;;;;;;5119817;28;20368;-60
2024/02/22 10:17:25;;;;;;;8.00;4.53;;;;;;;;;;5114211;28;20271;-61
2024/02/22 10:20:07;;;;;;;5.23;3.40;;;;;;;;;;5117646;28;20046;-59
2024/02/22 10:22:34;;;;;;;5.00;3.37;;;;;;;;;;5116363;28;20289;-59
2024/02/22 10:25:25;;;;;;;5.93;4.10;;;;;;;;;;5118587;28;21326;-60
2024/02/22 10:27:51;;;;;;;5.03;3.60;;;;;;;;;;5112763;28;20302;-60
2024/02/22 10:30:18;;;;;;;27.97;5.23;;;;;;;;;;5116579;28;20260;-61
2024/02/22 10:32:44;;;;;;;5.73;3.33;;;;;;;;;;5116806;28;20527;-56
2024/02/22 10:35:11;;;;;;;5.60;3.77;;;;;;;;;;5113339;28;20269;-60
2024/02/22 10:37:36;;;;;;;5.43;3.88;;;;;;;;;;5117174;28;20259;-59
2024/02/22 10:40:04;;;;;;;6.63;4.30;;;;;;;;;;5113547;28;20037;-59
2024/02/22 10:42:31;;;;;;;5.97;3.10;;;;;;;;;;5119887;28;20031;-61
2024/02/22 10:44:56;;;;;;;6.85;3.70;;;;;;;;;;5111972;28;20268;-60
2024/02/22 10:47:23;;;;;;;4.13;3.05;;;;;;;;;;5117047;28;20046;-59
2024/02/22 10:49:50;;;;;;;6.67;3.27;;;;;;;;;;5114218;28;20020;-58
2024/02/22 10:52:19;;;;;;;;;;;;;;;;;;5115559;28;20258;-59
2024/02/22 10:54:51;;;;;;;4.60;3.17;;;;;;;;;;5118427;28;19916;-59
2024/02/22 10:57:18;;;;;;;4.80;3.20;;;;;;;;;;5117073;28;20347;-59
2024/02/22 10:59:45;;;;;;;4.90;3.23;;;;;;;;;;5115007;28;20257;-59
2024/02/22 11:02:12;;;;;;;5.00;3.33;;;;;;;;;;5115548;28;20265;-59
2024/02/22 11:04:37;;;;;;;6.80;3.78;;;;;;;;;;5118510;28;20272;-60
2024/02/22 11:07:06;;;;;;;6.10;3.92;;;;;;;;;;5114983;28;20031;-59
2024/02/22 11:09:41;;;;;;;4.30;3.40;;;;;;;;;;5113132;28;20028;-59
2024/02/22 11:12:09;;;;;;;4.60;3.00;;;;;;;;;;5114408;28;20279;-60
2024/02/22 11:14:37;;;;;;;3.40;2.80;;;;;;;;;;5117302;28;20244;-60
2024/02/22 11:17:18;;;;;;;3.70;2.90;;;;;;;;;;5122544;28;20261;-60
2024/02/22 11:19:44;;;;;;;4.00;2.93;;;;;;;;;;5107658;28;20252;-60
2024/02/22 11:22:13;;;;;;;3.95;3.30;;;;;;;;;;5112527;28;20310;-60
2024/02/22 11:24:39;;;;;;;4.00;2.80;;;;;;;;;;5114327;28;20032;-60
2024/02/22 11:27:06;;;;;;;3.57;2.87;;;;;;;;;;5121107;28;20261;-59
2024/02/22 11:29:32;;;;;;;3.23;2.83;;;;;;;;;;5116004;28;20019;-59
2024/02/22 11:31:59;;;;;;;3.67;2.92;;;;;;;;;;5120772;28;20256;-58
2024/02/22 11:34:25;;;;;;;3.87;2.90;;;;;;;;;;5115799;28;20043;-60
2024/02/22 11:36:51;;;;;;;3.97;2.97;;;;;;;;;;5121568;28;20276;-58
2024/02/22 11:39:18;;;;;;;3.88;3.20;;;;;;;;;;5114214;28;20023;-60
2024/02/22 11:41:48;;;;;;;6.83;2.90;;;;;;;;;;5113762;28;20032;-62
2024/02/22 11:44:14;;;;;;;6.17;3.83;;;;;;;;;;5106159;28;20279;-58
2024/02/22 11:46:40;;;;;;;5.80;3.50;;;;;;;;;;5119369;28;20339;-60
2024/02/22 11:49:06;;;;;;;5.77;4.00;;;;;;;;;;5124909;28;20050;-60
2024/02/22 11:51:31;;;;;;;6.15;3.67;;;;;;;;;;5116595;28;20039;-62
2024/02/22 11:53:57;;;;;;;8.45;3.97;;;;;;;;;;5112989;28;20127;-58
2024/02/22 11:56:26;;;;;;;5.57;4.28;;;;;;;;;;5111242;28;20054;-57
2024/02/22 11:58:54;;;;;;;5.80;4.07;;;;;;;;;;5124736;28;20012;-59
2024/02/22 12:01:21;;;;;;;7.77;4.27;;;;;;;;;;5115136;28;20284;-59
2024/02/22 12:03:47;;;;;;;6.57;3.80;;;;;;;;;;5115395;28;20268;-59
2024/02/22 12:06:14;;;;;;;7.03;4.15;;;;;;;;;;5115192;28;20052;-61
2024/02/22 12:08:41;;;;;;;5.80;4.27;;;;;;;;;;5115053;28;20035;-58
2024/02/22 12:11:06;;;;;;;5.10;4.20;;;;;;;;;;5114639;28;20303;-57
2024/02/22 12:13:32;;;;;;;5.97;4.07;;;;;;;;;;5114870;28;20036;-61
2024/02/22 12:16:07;;;;;;;6.15;4.00;;;;;;;;;;5114412;28;20052;-59
2024/02/22 12:18:33;;;;;;;4.33;3.50;;;;;;;;;;5119376;28;20070;-58
2024/02/22 12:20:59;;;;;;;6.63;3.97;;;;;;;;;;5114683;28;20280;-59
2024/02/22 12:23:28;;;;;;;4.60;3.95;;;;;;;;;;5102276;28;20036;-59
2024/02/22 12:25:53;;;;;;;6.03;3.77;;;;;;;;;;5100623;28;20035;-59
2024/02/22 12:28:19;;;;;;;4.80;3.50;;;;;;;;;;5116595;28;20272;-59
2024/02/22 12:30:45;;;;;;;4.30;3.47;;;;;;;;;;5114268;28;20046;-59
2024/02/22 12:33:20;;;;;;;5.80;4.00;;;;;;;;;;5102256;28;20044;-60
2024/02/22 12:35:47;;;;;;;5.65;3.63;;;;;;;;;;5102035;28;20044;-59
2024/02/22 12:38:12;;;;;;;5.40;3.00;;;;;;;;;;5114328;28;20047;-59
2024/02/22 12:40:38;;;;;;;7.68;4.07;;;;;;;;;;5114498;28;20024;-59
2024/02/22 12:43:03;;;;;;;5.95;3.30;;;;;;;;;;5114485;28;20129;-60
2024/02/22 12:45:29;;;;;;;4.20;3.00;;;;;;;;;;5114724;28;20031;-59
2024/02/22 12:47:54;;;;;;;3.95;3.03;;;;;;;;;;5118527;28;20277;-59
2024/02/22 12:50:20;;;;;;;5.00;3.08;;;;;;;;;;5114704;28;20040;-59
2024/02/22 12:52:46;;;;;;;5.45;3.22;;;;;;;;;;5114140;28;20031;-58
2024/02/22 12:55:11;;;;;;;4.13;3.43;;;;;;;;;;5114586;28;20047;-57
2024/02/22 12:57:36;;;;;;;3.72;3.10;;;;;;;;;;5119679;28;20031;-60
2024/02/22 13:00:03;;;;;;;3.55;2.83;;;;;;;;;;5113693;28;20040;-58
2024/02/22 13:02:29;;;;;;;2.80;2.37;;;;;;;;;;5114387;28;20020;-58
2024/02/22 13:04:54;;;;;;;4.35;2.75;;;;;;;;;;5114371;28;20028;-58
2024/02/22 13:07:20;;;;;;;3.80;2.33;;;;;;;;;;5113110;28;20028;-58
2024/02/22 13:09:45;;;;;;;3.23;2.60;;;;;;;;;;5117797;28;20033;-58
2024/02/22 13:12:11;;;;;;;3.00;2.27;;;;;;;;;;5118748;28;20088;-58
2024/02/22 13:14:36;;;;;;;3.63;2.30;;;;;;;;;;5118487;28;20027;-59
2024/02/22 13:17:01;;;;;;;2.80;2.40;;;;;;;;;;5121365;28;20030;-58
2024/02/22 13:19:27;;;;;;;4.03;2.67;;;;;;;;;;5127254;28;20067;-60
2024/02/22 13:21:53;;;;;;;5.13;2.33;;;;;;;;;;5117318;28;20032;-59
2024/02/22 13:24:20;;;;;;;4.13;2.42;;;;;;;;;;5107287;28;20025;-58
2024/02/22 13:26:46;;;;;;;4.40;2.20;;;;;;;;;;5117598;28;20044;-59
2024/02/22 13:29:11;;;;;;;5.00;2.67;;;;;;;;;;5122579;28;20035;-58
2024/02/22 13:31:37;;;;;;;3.15;2.55;;;;;;;;;;5118202;28;20032;-59
2024/02/22 13:34:02;;;;;;;4.00;2.80;;;;;;;;;;5117529;28;20081;-59
2024/02/22 13:36:28;;;;;;;3.33;2.45;;;;;;;;;;5120172;28;20058;-59
2024/02/22 13:38:54;;;;;;;2.85;2.40;;;;;;;;;;5128177;28;20027;-59
2024/02/22 13:41:19;;;;;;;4.00;2.58;;;;;;;;;;5117855;28;20036;-59
2024/02/22 13:43:45;;;;;;;6.47;3.17;;;;;;;;;;5126773;28;20060;-60
2024/02/22 13:46:10;;;;;;;3.20;2.60;;;;;;;;;;5129437;28;20031;-60
2024/02/22 13:48:36;;;;;;;3.45;2.60;;;;;;;;;;5125432;28;20260;-58
2024/02/22 13:51:02;;;;;;;5.97;3.15;;;;;;;;;;5104794;28;20036;-59
2024/02/22 13:53:29;;;;;;;4.80;2.83;;;;;;;;;;5123371;28;20061;-60
2024/02/22 13:55:55;;;;;;;4.73;3.07;;;;;;;;;;5125022;28;20095;-61
2024/02/22 13:58:20;;;;;;;3.43;2.53;;;;;;;;;;5121902;28;20325;-61
2024/02/22 14:00:46;;;;;;;4.00;2.90;;;;;;;;;;5117381;28;20285;-61
2024/02/22 14:03:11;;;;;;;3.63;2.65;;;;;;;;;;5117104;28;20264;-58
2024/02/22 14:05:37;;;;;;;3.88;2.83;;;;;;;;;;5117470;28;20028;-60
2024/02/22 14:08:07;;;;;;;6.25;2.80;;;;;;;;;;5118431;28;20083;-60
2024/02/22 14:10:33;;;;;;;3.87;2.77;;;;;;;;;;5120215;28;20044;-58
2024/02/22 14:12:58;;;;;;;5.00;3.00;;;;;;;;;;5119300;28;20028;-60
2024/02/22 14:15:24;;;;;;;3.90;2.50;;;;;;;;;;5118573;28;20031;-60
2024/02/22 14:17:49;;;;;;;3.17;2.50;;;;;;;;;;5108448;28;20031;-60
2024/02/22 14:20:15;;;;;;;5.40;2.50;;;;;;;;;;5123396;28;20055;-61
2024/02/22 14:22:41;;;;;;;3.78;2.80;;;;;;;;;;5123149;28;20259;-60